createdAt,value
2022-09-21T00:00:41.234Z,10.04
2022-09-21T00:05:42.947Z,10.04
2022-09-21T00:10:49.849Z,9.70
2022-09-21T00:15:51.248Z,9.66
2022-09-21T00:20:55.412Z,9.77
2022-09-21T00:26:18.419Z,9.49
2022-09-21T00:31:22.299Z,9.35
2022-09-21T00:36:24.994Z,9.44
2022-09-21T00:47:33.416Z,9.63
2022-09-21T00:52:39.900Z,9.41
2022-09-21T00:57:48.967Z,9.56
2022-09-21T01:03:00.861Z,9.55
2022-09-21T01:08:07.811Z,9.59
2022-09-21T01:13:16.245Z,9.52
2022-09-21T01:18:31.906Z,9.46
2022-09-21T01:23:50.434Z,9.41
2022-09-21T01:29:09.854Z,9.40
2022-09-21T01:34:36.201Z,9.26
2022-09-21T01:39:54.908Z,9.15
2022-09-21T01:45:00.711Z,9.11
2022-09-21T01:50:05.281Z,8.98
2022-09-21T01:55:15.813Z,8.74
2022-09-21T02:00:17.552Z,8.65
2022-09-21T02:05:22.550Z,8.57
2022-09-21T02:10:39.866Z,8.63
2022-09-21T02:16:01.881Z,8.48
2022-09-21T02:21:17.813Z,8.34
2022-09-21T02:26:44.706Z,8.34
2022-09-21T02:31:53.855Z,8.36
2022-09-21T02:37:14.533Z,8.43
2022-09-21T02:42:21.935Z,8.34
2022-09-21T02:54:20.012Z,8.34
2022-09-21T02:59:21.645Z,8.33
2022-09-21T03:04:23.631Z,8.02
2022-09-21T03:09:25.165Z,7.82
2022-09-21T03:14:26.668Z,7.82
2022-09-21T03:19:28.219Z,7.86
2022-09-21T03:24:29.784Z,7.86
2022-09-21T03:29:31.296Z,7.99
2022-09-21T03:34:32.916Z,7.99
2022-09-21T03:39:34.851Z,7.85
2022-09-21T03:44:36.386Z,7.56
2022-09-21T03:49:37.927Z,7.52
2022-09-21T03:54:39.511Z,7.69
2022-09-21T03:59:41.265Z,7.79
2022-09-21T04:04:43.058Z,7.78
2022-09-21T04:09:44.587Z,7.89
2022-09-21T04:14:46.128Z,7.98
2022-09-21T04:19:47.676Z,8.08
2022-09-21T04:24:49.244Z,8.05
2022-09-21T04:29:50.859Z,7.91
2022-09-21T04:34:52.412Z,7.82
2022-09-21T04:39:54.042Z,7.86
2022-09-21T04:44:55.820Z,8.04
2022-09-21T04:49:57.423Z,7.88
2022-09-21T04:54:58.912Z,7.93
2022-09-21T05:00:00.615Z,8.04
2022-09-21T05:05:02.293Z,8.01
2022-09-21T05:10:04.308Z,8.20
2022-09-21T05:15:06.522Z,8.16
2022-09-21T05:20:08.408Z,8.12
2022-09-21T05:25:10.186Z,8.15
2022-09-21T05:30:12.550Z,7.79
2022-09-21T05:35:38.070Z,7.94
2022-09-21T05:40:40.024Z,8.20
2022-09-21T05:45:47.790Z,8.25
2022-09-21T05:50:55.277Z,8.09
2022-09-21T05:55:58.175Z,8.12
2022-09-21T06:01:12.129Z,8.41
2022-09-21T06:06:13.952Z,8.39
2022-09-21T06:11:16.595Z,8.45
2022-09-21T06:16:18.248Z,8.45
2022-09-21T06:21:19.866Z,8.52
2022-09-21T06:26:21.400Z,8.49
2022-09-21T06:31:23.087Z,8.64
2022-09-21T06:36:24.692Z,8.67
2022-09-21T06:41:26.349Z,8.40
2022-09-21T06:46:27.875Z,8.56
2022-09-21T06:51:29.487Z,8.66
2022-09-21T06:56:31.008Z,8.85
2022-09-21T07:01:32.757Z,8.67
2022-09-21T07:06:34.740Z,9.06
2022-09-21T07:11:36.262Z,9.58
2022-09-21T07:16:37.858Z,9.49
2022-09-21T07:21:39.727Z,9.16
2022-09-21T07:26:41.346Z,9.64
2022-09-21T07:31:44.462Z,9.23
2022-09-21T07:36:46.019Z,10.01
2022-09-21T07:41:47.630Z,9.94
2022-09-21T07:46:49.673Z,9.70
2022-09-21T07:51:51.212Z,9.77
2022-09-21T07:56:52.853Z,9.86
2022-09-21T08:01:54.409Z,9.76
2022-09-21T08:06:56.248Z,10.33
2022-09-21T08:11:57.809Z,9.70
2022-09-21T08:16:59.416Z,9.99
2022-09-21T08:22:01.038Z,10.19
2022-09-21T08:27:02.693Z,10.48
2022-09-21T08:32:04.531Z,10.93
2022-09-21T08:37:06.679Z,10.97
2022-09-21T08:42:08.164Z,11.42
2022-09-21T08:47:14.143Z,11.88
2022-09-21T08:52:19.282Z,11.44
2022-09-21T08:57:25.788Z,12.05
2022-09-21T09:02:54.555Z,13.36
2022-09-21T09:08:18.466Z,14.96
2022-09-21T09:13:57.587Z,15.39
2022-09-21T09:19:37.695Z,16.11
2022-09-21T09:24:48.913Z,16.97
2022-09-21T09:30:03.943Z,17.50
2022-09-21T09:35:44.672Z,18.79
2022-09-21T09:41:10.895Z,19.78
2022-09-21T09:46:31.263Z,19.77
2022-09-21T09:51:33.031Z,20.10
2022-09-21T09:56:34.534Z,19.79
2022-09-21T10:01:44.338Z,20.13
2022-09-21T10:06:47.012Z,20.50
2022-09-21T10:11:49.372Z,21.13
2022-09-21T10:16:52.603Z,21.00
2022-09-21T10:22:02.408Z,21.22
2022-09-21T10:27:12.652Z,20.92
2022-09-21T10:32:15.042Z,20.37
2022-09-21T10:37:32.267Z,21.43
2022-09-21T10:42:42.544Z,22.53
2022-09-21T10:47:48.351Z,22.02
2022-09-21T10:52:51.577Z,21.65
2022-09-21T10:57:53.674Z,23.42
2022-09-21T11:02:56.466Z,21.93
2022-09-21T11:08:20.047Z,23.95
2022-09-21T11:14:00.142Z,23.99
2022-09-21T11:19:21.932Z,22.52
2022-09-21T11:24:49.253Z,21.88
2022-09-21T11:29:58.275Z,22.71
2022-09-21T11:35:26.120Z,21.24
2022-09-21T11:40:35.136Z,21.52
2022-09-21T11:45:59.686Z,21.77
2022-09-21T11:51:23.012Z,22.20
2022-09-21T11:56:33.898Z,22.51
2022-09-21T12:02:06.467Z,22.07
2022-09-21T12:07:17.282Z,22.23
2022-09-21T12:12:52.760Z,22.96
2022-09-21T12:18:19.624Z,20.08
2022-09-21T12:23:39.062Z,21.54
2022-09-21T12:28:49.271Z,23.12
2022-09-21T12:33:58.098Z,23.45
2022-09-21T12:39:29.188Z,22.61
2022-09-21T12:44:45.995Z,21.66
2022-09-21T12:49:48.927Z,22.43
2022-09-21T12:55:04.272Z,22.46
2022-09-21T13:00:11.150Z,23.37
2022-09-21T13:05:35.724Z,23.44
2022-09-21T13:10:55.664Z,22.34
2022-09-21T13:15:57.902Z,21.66
2022-09-21T13:21:00.238Z,22.04
2022-09-21T13:26:36.217Z,21.87
2022-09-21T13:31:58.773Z,23.75
2022-09-21T13:37:09.609Z,24.08
2022-09-21T13:42:29.567Z,22.49
2022-09-21T13:47:36.874Z,24.15
2022-09-21T13:52:45.247Z,22.99
2022-09-21T13:57:50.068Z,23.04
2022-09-21T14:02:51.866Z,22.67
2022-09-21T14:08:01.384Z,23.17
2022-09-21T14:13:22.275Z,24.11
2022-09-21T14:18:37.724Z,24.27
2022-09-21T14:23:39.931Z,24.19
2022-09-21T14:28:50.674Z,24.14
2022-09-21T14:33:55.597Z,22.04
2022-09-21T14:39:00.841Z,23.07
2022-09-21T14:44:02.755Z,23.38
2022-09-21T14:49:10.649Z,24.12
2022-09-21T14:54:39.608Z,24.79
2022-09-21T15:00:12.338Z,24.89
2022-09-21T15:05:19.552Z,24.03
2022-09-21T15:10:24.167Z,24.47
2022-09-21T15:15:37.761Z,23.79
2022-09-21T15:20:39.447Z,23.68
2022-09-21T15:25:41.091Z,22.69
2022-09-21T15:30:43.458Z,22.36
2022-09-21T15:35:46.749Z,23.74
2022-09-21T15:40:50.002Z,22.64
2022-09-21T15:46:03.384Z,21.61
2022-09-21T15:51:15.213Z,21.69
2022-09-21T15:56:24.470Z,20.74
2022-09-21T16:01:27.049Z,20.81
2022-09-21T16:06:36.824Z,20.77
2022-09-21T16:11:38.400Z,21.32
2022-09-21T16:17:08.901Z,21.33
2022-09-21T16:22:15.880Z,21.20
2022-09-21T16:27:20.411Z,21.28
2022-09-21T16:32:31.093Z,21.26
2022-09-21T16:37:32.786Z,20.63
2022-09-21T16:42:34.338Z,19.74
2022-09-21T16:47:37.726Z,18.93
2022-09-21T16:52:39.378Z,18.48
2022-09-21T16:57:41.580Z,18.17
2022-09-21T17:02:43.903Z,17.82
2022-09-21T17:07:56.615Z,17.30
2022-09-21T17:12:58.343Z,16.93
2022-09-21T17:18:00.288Z,16.50
2022-09-21T17:23:02.397Z,16.16
2022-09-21T17:28:14.365Z,15.73
2022-09-21T17:33:15.873Z,15.40
2022-09-21T17:38:17.537Z,15.08
2022-09-21T17:43:38.667Z,14.89
2022-09-21T17:48:40.637Z,14.72
2022-09-21T17:53:42.430Z,14.45
2022-09-21T17:58:50.068Z,14.25
2022-09-21T18:03:52.145Z,14.06
2022-09-21T18:08:54.090Z,13.86
2022-09-21T18:14:10.843Z,13.83
2022-09-21T18:19:30.899Z,13.62
2022-09-21T18:24:32.643Z,13.55
2022-09-21T18:29:42.161Z,13.50
2022-09-21T18:35:02.438Z,13.26
2022-09-21T18:40:19.735Z,13.13
2022-09-21T18:45:27.016Z,13.20
2022-09-21T18:51:07.025Z,13.05
2022-09-21T18:56:08.943Z,12.94
2022-09-21T19:01:12.511Z,12.83
2022-09-21T19:06:45.709Z,13.11
2022-09-21T19:12:11.220Z,12.76
2022-09-21T19:17:21.778Z,12.69
2022-09-21T19:22:29.781Z,12.83
2022-09-21T19:27:37.778Z,13.04
2022-09-21T19:32:46.678Z,13.10
2022-09-21T19:37:49.640Z,13.04
2022-09-21T19:43:20.001Z,12.76
2022-09-21T19:48:27.327Z,12.52
2022-09-21T19:53:30.316Z,12.10
2022-09-21T19:58:32.232Z,11.88
2022-09-21T20:03:39.342Z,11.69
2022-09-21T20:08:55.171Z,11.51
2022-09-21T20:14:05.078Z,11.51
2022-09-21T20:19:25.156Z,11.38
2022-09-21T20:24:48.501Z,11.27
2022-09-21T20:29:50.025Z,11.23
2022-09-21T20:34:51.604Z,11.20
2022-09-21T20:39:53.835Z,11.12
2022-09-21T20:44:55.440Z,11.03
2022-09-21T20:49:57.009Z,10.92
2022-09-21T20:54:58.520Z,10.82
2022-09-21T21:00:00.233Z,10.91
2022-09-21T21:05:02.123Z,11.02
2022-09-21T21:10:04.258Z,11.03
2022-09-21T21:15:06.590Z,10.97
2022-09-21T21:20:09.221Z,10.77
2022-09-21T21:25:10.892Z,10.59
2022-09-21T21:30:12.933Z,10.39
2022-09-21T21:35:14.594Z,10.18
2022-09-21T21:40:16.304Z,10.12
2022-09-21T21:45:17.894Z,10.28
2022-09-21T21:50:19.375Z,10.09
2022-09-21T21:55:20.941Z,9.95
2022-09-21T22:00:22.524Z,9.95
2022-09-21T22:05:24.085Z,10.08
2022-09-21T22:10:25.625Z,10.08
2022-09-21T22:15:27.123Z,9.97
2022-09-21T22:20:28.676Z,9.96
2022-09-21T22:25:30.183Z,9.95
2022-09-21T22:30:31.827Z,9.91
2022-09-21T22:35:33.295Z,9.89
2022-09-21T22:40:34.909Z,9.86
2022-09-21T22:45:36.527Z,9.93
2022-09-21T22:50:38.037Z,9.78
2022-09-21T22:55:39.528Z,9.70
2022-09-21T23:00:41.237Z,9.62
2022-09-21T23:05:42.776Z,9.66
2022-09-21T23:10:44.242Z,9.79
2022-09-21T23:15:45.800Z,9.74
2022-09-21T23:20:59.006Z,9.62
2022-09-21T23:26:20.842Z,9.67
2022-09-21T23:31:23.476Z,9.54
2022-09-21T23:36:28.006Z,9.43
2022-09-21T23:41:33.135Z,9.39
2022-09-21T23:46:36.547Z,9.41
2022-09-21T23:51:38.540Z,9.37
2022-09-21T23:56:40.129Z,9.38
